sensor_id;sensor_type;location;lat;lon;timestamp;temperature;humidity
53675;DHT22;39574;50.534;8.500;2023-02-02T00:04:43;7.0;99.9
53675;DHT22;39574;50.534;8.500;2023-02-02T00:14:08;7.1;99.9
53675;DHT22;39574;50.534;8.500;2023-02-02T00:19:24;7.0;99.9
53675;DHT22;39574;50.534;8.500;2023-02-02T00:24:32;7.1;99.9
53675;DHT22;39574;50.534;8.500;2023-02-02T00:29:34;7.1;99.9
53675;DHT22;39574;50.534;8.500;2023-02-02T00:38:59;6.9;99.9
53675;DHT22;39574;50.534;8.500;2023-02-02T00:43:59;6.7;99.9
53675;DHT22;39574;50.534;8.500;2023-02-02T00:49:11;6.6;99.9
53675;DHT22;39574;50.534;8.500;2023-02-02T00:54:12;6.4;99.9
53675;DHT22;39574;50.534;8.500;2023-02-02T00:59:26;6.3;99.9
53675;DHT22;39574;50.534;8.500;2023-02-02T01:08:55;6.1;99.9
53675;DHT22;39574;50.534;8.500;2023-02-02T01:14:04;5.9;99.9
53675;DHT22;39574;50.534;8.500;2023-02-02T01:19:10;5.7;99.9
53675;DHT22;39574;50.534;8.500;2023-02-02T01:24:18;5.7;99.9
53675;DHT22;39574;50.534;8.500;2023-02-02T01:29:22;5.7;99.9
53675;DHT22;39574;50.534;8.500;2023-02-02T01:38:28;5.9;99.9
53675;DHT22;39574;50.534;8.500;2023-02-02T01:43:48;6.1;99.9
53675;DHT22;39574;50.534;8.500;2023-02-02T01:48:58;6.2;99.9
53675;DHT22;39574;50.534;8.500;2023-02-02T01:53:57;6.2;99.9
53675;DHT22;39574;50.534;8.500;2023-02-02T01:59:09;6.2;99.9
53675;DHT22;39574;50.534;8.500;2023-02-02T02:04:11;6.1;99.9
53675;DHT22;39574;50.534;8.500;2023-02-02T02:13:38;6.1;99.9
53675;DHT22;39574;50.534;8.500;2023-02-02T02:18:50;6.0;99.9
53675;DHT22;39574;50.534;8.500;2023-02-02T02:29:11;6.0;99.9
53675;DHT22;39574;50.534;8.500;2023-02-02T02:38:44;6.0;99.9
53675;DHT22;39574;50.534;8.500;2023-02-02T02:43:48;6.1;99.9
53675;DHT22;39574;50.534;8.500;2023-02-02T02:48:47;6.2;99.9
53675;DHT22;39574;50.534;8.500;2023-02-02T02:53:56;6.3;99.9
53675;DHT22;39574;50.534;8.500;2023-02-02T03:00:07;6.3;99.9
53675;DHT22;39574;50.534;8.500;2023-02-02T03:08:36;6.3;99.9
53675;DHT22;39574;50.534;8.500;2023-02-02T03:13:38;6.2;99.9
53675;DHT22;39574;50.534;8.500;2023-02-02T03:18:50;6.0;99.9
53675;DHT22;39574;50.534;8.500;2023-02-02T03:28:11;5.8;99.9
53675;DHT22;39574;50.534;8.500;2023-02-02T03:33:27;5.6;99.9
53675;DHT22;39574;50.534;8.500;2023-02-02T03:38:33;5.7;99.9
53675;DHT22;39574;50.534;8.500;2023-02-02T03:43:44;5.7;99.9
53675;DHT22;39574;50.534;8.500;2023-02-02T03:48:44;5.8;99.9
53675;DHT22;39574;50.534;8.500;2023-02-02T03:58:10;6.0;99.9
53675;DHT22;39574;50.534;8.500;2023-02-02T04:03:11;6.1;99.9
53675;DHT22;39574;50.534;8.500;2023-02-02T04:08:24;6.2;99.9
53675;DHT22;39574;50.534;8.500;2023-02-02T04:13:25;6.2;99.9
53675;DHT22;39574;50.534;8.500;2023-02-02T04:18:39;6.2;99.9
53675;DHT22;39574;50.534;8.500;2023-02-02T04:28:15;6.2;99.9
53675;DHT22;39574;50.534;8.500;2023-02-02T04:33:19;6.1;99.9
53675;DHT22;39574;50.534;8.500;2023-02-02T04:38:20;6.1;99.9
53675;DHT22;39574;50.534;8.500;2023-02-02T04:43:32;6.0;99.9
53675;DHT22;39574;50.534;8.500;2023-02-02T04:52:51;6.1;99.9
53675;DHT22;39574;50.534;8.500;2023-02-02T04:57:57;6.1;99.9
53675;DHT22;39574;50.534;8.500;2023-02-02T05:03:08;6.2;99.9
53675;DHT22;39574;50.534;8.500;2023-02-02T05:08:09;6.2;99.9
53675;DHT22;39574;50.534;8.500;2023-02-02T05:13:21;6.3;99.9
53675;DHT22;39574;50.534;8.500;2023-02-02T05:18:24;6.4;99.9
53675;DHT22;39574;50.534;8.500;2023-02-02T05:27:52;6.4;99.9
53675;DHT22;39574;50.534;8.500;2023-02-02T05:33:01;6.5;99.9
53675;DHT22;39574;50.534;8.500;2023-02-02T05:38:03;6.5;99.9
53675;DHT22;39574;50.534;8.500;2023-02-02T05:43:14;6.6;99.9
53675;DHT22;39574;50.534;8.500;2023-02-02T05:48:18;6.6;99.9
53675;DHT22;39574;50.534;8.500;2023-02-02T05:57:41;6.6;99.9
53675;DHT22;39574;50.534;8.500;2023-02-02T06:02:53;6.6;99.9
53675;DHT22;39574;50.534;8.500;2023-02-02T06:07:54;6.6;99.9
53675;DHT22;39574;50.534;8.500;2023-02-02T06:13:07;6.6;99.9
53675;DHT22;39574;50.534;8.500;2023-02-02T06:22:33;6.6;99.9
53675;DHT22;39574;50.534;8.500;2023-02-02T06:27:38;6.6;99.9
53675;DHT22;39574;50.534;8.500;2023-02-02T06:32:46;6.7;99.9
53675;DHT22;39574;50.534;8.500;2023-02-02T06:37:59;6.7;99.9
53675;DHT22;39574;50.534;8.500;2023-02-02T06:47:57;6.7;99.9
53675;DHT22;39574;50.534;8.500;2023-02-02T06:52:58;6.7;99.9
53675;DHT22;39574;50.534;8.500;2023-02-02T07:02:26;6.7;99.9
53675;DHT22;39574;50.534;8.500;2023-02-02T07:12:52;6.7;99.9
53675;DHT22;39574;50.534;8.500;2023-02-02T07:17:54;6.7;99.9
53675;DHT22;39574;50.534;8.500;2023-02-02T07:22:54;6.7;99.9
53675;DHT22;39574;50.534;8.500;2023-02-02T07:32:08;6.7;99.9
53675;DHT22;39574;50.534;8.500;2023-02-02T07:37:16;6.8;99.9
53675;DHT22;39574;50.534;8.500;2023-02-02T07:42:17;6.8;99.9
53675;DHT22;39574;50.534;8.500;2023-02-02T07:47:17;6.9;99.9
53675;DHT22;39574;50.534;8.500;2023-02-02T07:52:31;6.9;99.9
53675;DHT22;39574;50.534;8.500;2023-02-02T07:57:43;6.9;99.9
53675;DHT22;39574;50.534;8.500;2023-02-02T08:07:21;6.9;99.9
53675;DHT22;39574;50.534;8.500;2023-02-02T08:12:26;6.9;99.9
53675;DHT22;39574;50.534;8.500;2023-02-02T08:17:34;6.9;99.9
53675;DHT22;39574;50.534;8.500;2023-02-02T08:22:36;6.9;99.9
53675;DHT22;39574;50.534;8.500;2023-02-02T08:27:38;6.9;99.9
53675;DHT22;39574;50.534;8.500;2023-02-02T08:36:43;6.9;99.9
53675;DHT22;39574;50.534;8.500;2023-02-02T08:41:57;6.9;99.9
53675;DHT22;39574;50.534;8.500;2023-02-02T08:46:58;6.9;99.9
53675;DHT22;39574;50.534;8.500;2023-02-02T08:52:10;6.9;99.9
53675;DHT22;39574;50.534;8.500;2023-02-02T08:57:11;6.9;99.9
53675;DHT22;39574;50.534;8.500;2023-02-02T09:02:24;6.9;99.9
53675;DHT22;39574;50.534;8.500;2023-02-02T09:11:36;6.9;99.9
53675;DHT22;39574;50.534;8.500;2023-02-02T09:16:54;6.9;99.9
53675;DHT22;39574;50.534;8.500;2023-02-02T09:22:09;7.0;99.9
53675;DHT22;39574;50.534;8.500;2023-02-02T09:27:21;7.0;99.9
53675;DHT22;39574;50.534;8.500;2023-02-02T09:37:03;7.0;99.9
53675;DHT22;39574;50.534;8.500;2023-02-02T09:42:20;7.0;99.9
53675;DHT22;39574;50.534;8.500;2023-02-02T09:51:45;7.0;99.9
53675;DHT22;39574;50.534;8.500;2023-02-02T09:56:47;7.0;99.9
53675;DHT22;39574;50.534;8.500;2023-02-02T10:01:54;7.0;99.9
53675;DHT22;39574;50.534;8.500;2023-02-02T10:06:59;7.1;99.9
53675;DHT22;39574;50.534;8.500;2023-02-02T10:12:16;7.2;99.9
53675;DHT22;39574;50.534;8.500;2023-02-02T10:21:37;7.2;99.9
53675;DHT22;39574;50.534;8.500;2023-02-02T10:26:48;7.2;99.9
53675;DHT22;39574;50.534;8.500;2023-02-02T10:31:56;7.3;99.9
53675;DHT22;39574;50.534;8.500;2023-02-02T10:37:04;7.3;99.9
53675;DHT22;39574;50.534;8.500;2023-02-02T10:42:04;7.3;99.9
53675;DHT22;39574;50.534;8.500;2023-02-02T10:51:44;7.3;99.9
53675;DHT22;39574;50.534;8.500;2023-02-02T10:56:44;7.3;99.9
53675;DHT22;39574;50.534;8.500;2023-02-02T11:01:45;7.3;99.9
53675;DHT22;39574;50.534;8.500;2023-02-02T11:06:56;7.3;99.9
53675;DHT22;39574;50.534;8.500;2023-02-02T11:16:24;7.3;99.9
53675;DHT22;39574;50.534;8.500;2023-02-02T11:21:34;7.3;99.9
53675;DHT22;39574;50.534;8.500;2023-02-02T11:26:46;7.3;99.9
53675;DHT22;39574;50.534;8.500;2023-02-02T11:31:50;7.3;99.9
53675;DHT22;39574;50.534;8.500;2023-02-02T11:37:00;7.4;99.9
53675;DHT22;39574;50.534;8.500;2023-02-02T11:46:29;7.3;99.9
53675;DHT22;39574;50.534;8.500;2023-02-02T11:51:31;7.3;99.9
53675;DHT22;39574;50.534;8.500;2023-02-02T11:56:41;7.3;99.9
53675;DHT22;39574;50.534;8.500;2023-02-02T12:06:18;7.3;99.9
53675;DHT22;39574;50.534;8.500;2023-02-02T12:11:28;7.3;99.9
53675;DHT22;39574;50.534;8.500;2023-02-02T12:16:29;7.4;99.9
53675;DHT22;39574;50.534;8.500;2023-02-02T12:21:30;7.4;99.9
53675;DHT22;39574;50.534;8.500;2023-02-02T12:26:33;7.4;99.9
53675;DHT22;39574;50.534;8.500;2023-02-02T12:35:52;7.4;99.9
53675;DHT22;39574;50.534;8.500;2023-02-02T12:40:55;7.5;99.9
53675;DHT22;39574;50.534;8.500;2023-02-02T12:46:06;7.5;99.9
53675;DHT22;39574;50.534;8.500;2023-02-02T12:51:19;7.5;99.9
53675;DHT22;39574;50.534;8.500;2023-02-02T12:56:29;7.5;99.9
53675;DHT22;39574;50.534;8.500;2023-02-02T13:05:43;7.5;99.9
53675;DHT22;39574;50.534;8.500;2023-02-02T13:11:10;7.5;99.9
53675;DHT22;39574;50.534;8.500;2023-02-02T13:16:11;7.5;99.9
53675;DHT22;39574;50.534;8.500;2023-02-02T13:21:24;7.4;99.9
53675;DHT22;39574;50.534;8.500;2023-02-02T13:30:43;7.4;99.9
53675;DHT22;39574;50.534;8.500;2023-02-02T13:36:02;7.4;99.9
53675;DHT22;39574;50.534;8.500;2023-02-02T13:41:15;7.4;99.9
53675;DHT22;39574;50.534;8.500;2023-02-02T13:50:44;7.4;99.9
53675;DHT22;39574;50.534;8.500;2023-02-02T13:56:00;7.5;99.9
53675;DHT22;39574;50.534;8.500;2023-02-02T14:01:03;7.5;99.9
53675;DHT22;39574;50.534;8.500;2023-02-02T14:06:10;7.6;99.9
53675;DHT22;39574;50.534;8.500;2023-02-02T14:11:14;7.5;99.9
53675;DHT22;39574;50.534;8.500;2023-02-02T14:20:43;7.6;99.9
53675;DHT22;39574;50.534;8.500;2023-02-02T14:26:09;7.6;99.9
53675;DHT22;39574;50.534;8.500;2023-02-02T14:31:39;7.7;99.9
53675;DHT22;39574;50.534;8.500;2023-02-02T14:36:10;7.7;99.9
53675;DHT22;39574;50.534;8.500;2023-02-02T14:41:08;7.7;99.9
53675;DHT22;39574;50.534;8.500;2023-02-02T14:50:39;7.7;99.9
53675;DHT22;39574;50.534;8.500;2023-02-02T14:55:49;7.6;99.9
53675;DHT22;39574;50.534;8.500;2023-02-02T15:00:58;7.6;99.9
53675;DHT22;39574;50.534;8.500;2023-02-02T15:06:00;7.5;99.9
53675;DHT22;39574;50.534;8.500;2023-02-02T15:15:26;7.5;99.9
53675;DHT22;39574;50.534;8.500;2023-02-02T15:20:41;7.5;99.9
53675;DHT22;39574;50.534;8.500;2023-02-02T15:25:42;7.5;99.9
53675;DHT22;39574;50.534;8.500;2023-02-02T15:30:55;7.5;99.9
53675;DHT22;39574;50.534;8.500;2023-02-02T15:40:31;7.5;99.9
53675;DHT22;39574;50.534;8.500;2023-02-02T15:45:34;7.6;99.9
53675;DHT22;39574;50.534;8.500;2023-02-02T15:50:45;7.6;99.9
53675;DHT22;39574;50.534;8.500;2023-02-02T15:55:49;7.6;99.9
53675;DHT22;39574;50.534;8.500;2023-02-02T16:00:54;7.6;99.9
53675;DHT22;39574;50.534;8.500;2023-02-02T16:10:05;7.6;99.9
53675;DHT22;39574;50.534;8.500;2023-02-02T16:15:19;7.6;99.9
53675;DHT22;39574;50.534;8.500;2023-02-02T16:20:27;7.7;99.9
53675;DHT22;39574;50.534;8.500;2023-02-02T16:25:41;7.7;99.9
53675;DHT22;39574;50.534;8.500;2023-02-02T16:35:22;7.7;99.9
53675;DHT22;39574;50.534;8.500;2023-02-02T16:40:23;7.7;99.9
53675;DHT22;39574;50.534;8.500;2023-02-02T16:45:41;7.7;99.9
53675;DHT22;39574;50.534;8.500;2023-02-02T16:54:54;7.7;99.9
53675;DHT22;39574;50.534;8.500;2023-02-02T17:00:00;7.7;99.9
53675;DHT22;39574;50.534;8.500;2023-02-02T17:05:01;7.7;99.9
53675;DHT22;39574;50.534;8.500;2023-02-02T17:10:20;7.8;99.9
53675;DHT22;39574;50.534;8.500;2023-02-02T17:15:30;7.7;99.9
53675;DHT22;39574;50.534;8.500;2023-02-02T17:24:54;7.7;99.9
53675;DHT22;39574;50.534;8.500;2023-02-02T17:29:55;7.7;99.9
53675;DHT22;39574;50.534;8.500;2023-02-02T17:35:12;7.7;99.9
53675;DHT22;39574;50.534;8.500;2023-02-02T17:40:17;7.7;99.9
53675;DHT22;39574;50.534;8.500;2023-02-02T17:49:24;7.7;99.9
53675;DHT22;39574;50.534;8.500;2023-02-02T17:54:51;7.7;99.9
53675;DHT22;39574;50.534;8.500;2023-02-02T18:00:00;7.7;99.9
53675;DHT22;39574;50.534;8.500;2023-02-02T18:05:15;7.7;99.9
53675;DHT22;39574;50.534;8.500;2023-02-02T18:14:41;7.7;99.9
53675;DHT22;39574;50.534;8.500;2023-02-02T18:19:58;7.7;99.9
53675;DHT22;39574;50.534;8.500;2023-02-02T18:25:07;7.7;99.9
53675;DHT22;39574;50.534;8.500;2023-02-02T18:30:08;7.7;99.9
53675;DHT22;39574;50.534;8.500;2023-02-02T18:35:10;7.7;99.9
53675;DHT22;39574;50.534;8.500;2023-02-02T18:44:33;7.7;99.9
53675;DHT22;39574;50.534;8.500;2023-02-02T18:49:48;7.7;99.9
53675;DHT22;39574;50.534;8.500;2023-02-02T18:54:49;7.7;99.9
53675;DHT22;39574;50.534;8.500;2023-02-02T18:59:57;7.6;99.9
53675;DHT22;39574;50.534;8.500;2023-02-02T19:09:29;7.5;99.9
53675;DHT22;39574;50.534;8.500;2023-02-02T19:14:39;7.5;99.9
53675;DHT22;39574;50.534;8.500;2023-02-02T19:19:41;7.4;99.9
53675;DHT22;39574;50.534;8.500;2023-02-02T19:24:53;7.3;99.9
53675;DHT22;39574;50.534;8.500;2023-02-02T19:34:04;7.3;99.9
53675;DHT22;39574;50.534;8.500;2023-02-02T19:39:20;7.3;99.9
53675;DHT22;39574;50.534;8.500;2023-02-02T19:44:22;7.3;99.9
53675;DHT22;39574;50.534;8.500;2023-02-02T19:49:30;7.2;99.9
53675;DHT22;39574;50.534;8.500;2023-02-02T19:54:42;7.2;99.9
53675;DHT22;39574;50.534;8.500;2023-02-02T19:59:44;7.2;99.9
53675;DHT22;39574;50.534;8.500;2023-02-02T20:09:09;7.2;99.9
53675;DHT22;39574;50.534;8.500;2023-02-02T20:14:19;7.2;99.9
53675;DHT22;39574;50.534;8.500;2023-02-02T20:19:19;7.2;99.9
53675;DHT22;39574;50.534;8.500;2023-02-02T20:24:22;7.2;99.9
53675;DHT22;39574;50.534;8.500;2023-02-02T20:29:37;7.2;99.9
53675;DHT22;39574;50.534;8.500;2023-02-02T20:34:39;7.2;99.9
53675;DHT22;39574;50.534;8.500;2023-02-02T20:44:04;7.2;99.9
53675;DHT22;39574;50.534;8.500;2023-02-02T20:49:04;7.2;99.9
53675;DHT22;39574;50.534;8.500;2023-02-02T20:54:18;7.1;99.9
53675;DHT22;39574;50.534;8.500;2023-02-02T20:59:18;7.1;99.9
53675;DHT22;39574;50.534;8.500;2023-02-02T21:04:27;7.0;99.9
53675;DHT22;39574;50.534;8.500;2023-02-02T21:09:29;7.0;99.9
53675;DHT22;39574;50.534;8.500;2023-02-02T21:18:57;7.0;99.9
53675;DHT22;39574;50.534;8.500;2023-02-02T21:24:09;6.9;99.9
53675;DHT22;39574;50.534;8.500;2023-02-02T21:29:10;6.9;99.9
53675;DHT22;39574;50.534;8.500;2023-02-02T21:34:18;6.9;99.9
53675;DHT22;39574;50.534;8.500;2023-02-02T21:39:24;7.0;99.9
53675;DHT22;39574;50.534;8.500;2023-02-02T21:48:49;7.0;99.9
53675;DHT22;39574;50.534;8.500;2023-02-02T21:54:11;7.1;99.9
53675;DHT22;39574;50.534;8.500;2023-02-02T21:59:18;7.1;99.9
53675;DHT22;39574;50.534;8.500;2023-02-02T22:08:44;7.1;99.9
53675;DHT22;39574;50.534;8.500;2023-02-02T22:13:45;7.2;99.9
53675;DHT22;39574;50.534;8.500;2023-02-02T22:18:54;7.2;99.9
53675;DHT22;39574;50.534;8.500;2023-02-02T22:24:09;7.2;99.9
53675;DHT22;39574;50.534;8.500;2023-02-02T22:29:11;7.2;99.9
53675;DHT22;39574;50.534;8.500;2023-02-02T22:39:03;7.2;99.9
53675;DHT22;39574;50.534;8.500;2023-02-02T22:44:04;7.3;99.9
53675;DHT22;39574;50.534;8.500;2023-02-02T22:49:07;7.3;99.9
53675;DHT22;39574;50.534;8.500;2023-02-02T22:58:43;7.3;99.9
53675;DHT22;39574;50.534;8.500;2023-02-02T23:03:44;7.3;99.9
53675;DHT22;39574;50.534;8.500;2023-02-02T23:08:45;7.3;99.9
53675;DHT22;39574;50.534;8.500;2023-02-02T23:13:58;7.2;99.9
53675;DHT22;39574;50.534;8.500;2023-02-02T23:23:25;7.3;99.9
53675;DHT22;39574;50.534;8.500;2023-02-02T23:28:37;7.2;99.9
53675;DHT22;39574;50.534;8.500;2023-02-02T23:33:41;7.2;99.9
53675;DHT22;39574;50.534;8.500;2023-02-02T23:38:53;7.3;99.9
53675;DHT22;39574;50.534;8.500;2023-02-02T23:48:11;7.3;99.9
53675;DHT22;39574;50.534;8.500;2023-02-02T23:53:29;7.3;99.9
53675;DHT22;39574;50.534;8.500;2023-02-02T23:58:30;7.3;99.9
